createdAt,value
2019-02-23T00:01:06.372Z,1028.41
2019-02-23T00:03:35.338Z,1028.27
2019-02-23T00:04:33.203Z,1028.5
2019-02-23T00:05:22.525Z,1028.32
2019-02-23T00:18:36.590Z,1028.64
2019-02-23T00:19:25.285Z,1028.65
2019-02-23T00:20:17.150Z,1028.67
2019-02-23T00:39:34.910Z,1028.49
2019-02-23T00:40:29.680Z,1028.47
2019-02-23T00:56:59.305Z,1028.37
2019-02-23T01:05:48.688Z,1028.32
2019-02-23T01:08:47.953Z,1028.29
2019-02-23T01:09:37.239Z,1028.29
2019-02-23T01:10:20.432Z,1028.32
2019-02-23T01:11:04.989Z,1028.33
2019-02-23T01:11:44.803Z,1028.33
2019-02-23T01:12:26.923Z,1028.29
2019-02-23T01:13:07.964Z,1028.35
2019-02-23T01:13:50.506Z,1028.32
2019-02-23T01:14:32.461Z,1028.35
2019-02-23T01:15:14.238Z,1028.35
2019-02-23T01:15:55.022Z,1028.35
2019-02-23T01:16:35.985Z,1028.38
2019-02-23T01:17:19.131Z,1028.39
2019-02-23T01:18:00.891Z,1028.38
2019-02-23T01:18:43.898Z,1028.28
2019-02-23T01:19:26.367Z,1028.39
2019-02-23T01:20:07.329Z,1028.38
2019-02-23T01:20:48.278Z,1028.39
2019-02-23T01:21:30.416Z,1028.34
2019-02-23T01:22:11.892Z,1028.34
2019-02-23T01:22:51.665Z,1028.38
2019-02-23T01:23:32.430Z,1028.35
2019-02-23T01:24:14.758Z,1028.33
2019-02-23T01:24:55.842Z,1028.32
2019-02-23T01:25:36.922Z,1028.28
2019-02-23T01:26:17.254Z,1028.32
2019-02-23T01:26:57.768Z,1028.3
2019-02-23T01:27:38.341Z,1028.32
2019-02-23T01:28:19.636Z,1028.32
2019-02-23T01:29:00.334Z,1028.36
2019-02-23T01:29:40.567Z,1028.34
2019-02-23T01:30:20.957Z,1028.36
2019-02-23T01:31:01.383Z,1028.34
2019-02-23T01:31:41.851Z,1028.33
2019-02-23T01:32:23.069Z,1028.35
2019-02-23T01:33:04.374Z,1028.32
2019-02-23T01:33:44.793Z,1028.3
2019-02-23T01:34:27.076Z,1028.28
2019-02-23T01:35:07.775Z,1028.28
2019-02-23T01:35:48.737Z,1028.31
2019-02-23T01:36:31.429Z,1028.3
2019-02-23T01:37:12.581Z,1028.28
2019-02-23T01:37:53.253Z,1028.3
2019-02-23T01:38:35.794Z,1028.24
2019-02-23T01:39:16.367Z,1028.25
2019-02-23T01:39:59.124Z,1028.24
2019-02-23T01:40:40.720Z,1028.23
2019-02-23T01:41:21.050Z,1028.27
2019-02-23T01:42:02.067Z,1028.25
2019-02-23T01:42:42.472Z,1028.19
2019-02-23T01:43:22.987Z,1028.16
2019-02-23T01:44:03.403Z,1028.18
2019-02-23T01:44:44.370Z,1028.19
2019-02-23T01:45:24.908Z,1028.22
2019-02-23T01:46:05.267Z,1028.2
2019-02-23T01:46:45.720Z,1028.21
2019-02-23T01:47:26.137Z,1028.24
2019-02-23T01:48:06.547Z,1028.25
2019-02-23T01:48:46.991Z,1028.25
2019-02-23T01:49:27.518Z,1028.28
2019-02-23T01:50:07.911Z,1028.27
2019-02-23T01:50:49.330Z,1028.26
2019-02-23T01:51:30.202Z,1028.3
2019-02-23T01:52:10.674Z,1028.29
2019-02-23T01:52:51.969Z,1028.28
2019-02-23T01:53:32.535Z,1028.29
2019-02-23T01:54:13.176Z,1028.28
2019-02-23T01:54:53.431Z,1028.27
2019-02-23T01:55:34.184Z,1028.31
2019-02-23T01:56:14.653Z,1028.33
2019-02-23T01:56:55.221Z,1028.32
2019-02-23T01:57:35.816Z,1028.3
2019-02-23T01:58:16.397Z,1028.3
2019-02-23T01:58:57.280Z,1028.27
2019-02-23T01:59:37.870Z,1028.26
2019-02-23T02:00:18.303Z,1028.28
2019-02-23T02:00:59.170Z,1028.27
2019-02-23T02:01:40.506Z,1028.28
2019-02-23T02:02:20.849Z,1028.27
2019-02-23T02:03:02.195Z,1028.29
2019-02-23T02:03:42.822Z,1028.27
2019-02-23T02:04:23.772Z,1028.27
2019-02-23T02:05:04.191Z,1028.28
2019-02-23T02:05:44.587Z,1028.28
2019-02-23T02:06:25.338Z,1028.29
2019-02-23T02:07:05.731Z,1028.33
2019-02-23T02:07:46.435Z,1028.33
2019-02-23T02:08:26.712Z,1028.32
2019-02-23T02:09:07.448Z,1028.27
2019-02-23T02:09:47.850Z,1028.29
2019-02-23T02:10:28.717Z,1028.27
2019-02-23T02:11:11.366Z,1028.26
2019-02-23T02:11:51.605Z,1028.25
2019-02-23T02:12:31.983Z,1028.3
2019-02-23T02:13:12.485Z,1028.32
2019-02-23T02:13:53.486Z,1028.25
2019-02-23T02:14:33.878Z,1028.27
2019-02-23T02:15:21.236Z,1028.27
2019-02-23T02:16:04.371Z,1028.3
2019-02-23T02:25:13.671Z,1028.34
2019-02-23T02:32:37.409Z,1028.29
2019-02-23T02:33:28.014Z,1028.19
2019-02-23T02:34:07.858Z,1028.28
2019-02-23T02:34:49.998Z,1028.24
2019-02-23T02:35:31.446Z,1028.25
2019-02-23T02:36:12.109Z,1028.26
2019-02-23T02:36:55.579Z,1028.25
2019-02-23T02:37:39.836Z,1028.27
2019-02-23T02:38:30.813Z,1028.27
2019-02-23T02:39:14.784Z,1028.29
2019-02-23T02:39:55.277Z,1028.32
2019-02-23T02:40:37.392Z,1028.29
2019-02-23T02:41:35.975Z,1028.3
2019-02-23T02:42:23.346Z,1028.32
2019-02-23T02:45:09.360Z,1028.31
2019-02-23T02:57:14.490Z,1028.1
2019-02-23T02:58:05.037Z,1028.13
2019-02-23T02:58:57.659Z,1028.12
2019-02-23T02:59:45.865Z,1028.1
2019-02-23T03:00:33.336Z,1028.14
2019-02-23T03:01:25.935Z,1028.11
2019-02-23T03:02:20.176Z,1028.15
2019-02-23T03:03:14.687Z,1028.21
2019-02-23T03:07:21.316Z,1028.06
2019-02-23T03:08:09.575Z,1028.06
2019-02-23T03:09:02.903Z,1028.08
2019-02-23T03:09:55.626Z,1028.07
2019-02-23T03:10:43.671Z,1028.04
2019-02-23T03:11:32.705Z,1028.02
2019-02-23T03:12:19.826Z,1028.04
2019-02-23T03:13:11.110Z,1028.06
2019-02-23T03:17:15.437Z,1028.08
2019-02-23T03:18:04.829Z,1028.04
2019-02-23T03:18:52.488Z,1028.05
2019-02-23T03:21:33.125Z,1027.95
2019-02-23T03:22:29.958Z,1028.07
2019-02-23T03:23:19.894Z,1028.05
2019-02-23T03:24:16.595Z,1028.01
2019-02-23T03:25:10.348Z,1028.04
2019-02-23T03:27:34.690Z,1028.09
2019-02-23T03:32:55.049Z,1028.14
2019-02-23T03:34:48.926Z,1028.15
2019-02-23T03:35:42.046Z,1028.17
2019-02-23T03:36:32.777Z,1028.14
2019-02-23T03:37:22.708Z,1028.16
2019-02-23T03:38:16.724Z,1028.17
2019-02-23T03:39:04.023Z,1028.18
2019-02-23T03:39:53.122Z,1028.09
2019-02-23T03:40:44.759Z,1028.22
2019-02-23T03:41:37.697Z,1028.14
2019-02-23T03:52:08.507Z,1028.24
2019-02-23T03:58:58.329Z,1028.12
2019-02-23T04:03:08.898Z,1028.12
2019-02-23T04:04:00.242Z,1028.09
2019-02-23T04:04:53.301Z,1028.11
2019-02-23T04:05:45.323Z,1028.15
2019-02-23T04:06:38.073Z,1028.05
2019-02-23T04:07:31.330Z,1028.07
2019-02-23T04:08:14.789Z,1028.1
2019-02-23T04:08:55.330Z,1028.1
2019-02-23T04:09:36.022Z,1028.11
2019-02-23T04:10:17.158Z,1028.07
2019-02-23T04:10:57.654Z,1028.08
2019-02-23T04:11:38.628Z,1028.09
2019-02-23T04:12:20.110Z,1028.1
2019-02-23T04:13:00.671Z,1028.11
2019-02-23T04:13:41.060Z,1028.12
2019-02-23T04:14:21.685Z,1028.11
2019-02-23T04:15:02.433Z,1028.1
2019-02-23T04:15:43.668Z,1028.08
2019-02-23T04:16:24.826Z,1028.07
2019-02-23T04:17:05.233Z,1028.1
2019-02-23T04:17:45.905Z,1028.07
2019-02-23T04:18:27.092Z,1028.09
2019-02-23T04:19:07.698Z,1028.12
2019-02-23T04:19:48.450Z,1028.1
2019-02-23T04:20:29.217Z,1028.13
2019-02-23T04:21:09.572Z,1028.09
2019-02-23T04:21:50.301Z,1028.07
2019-02-23T04:22:31.522Z,1028.14
2019-02-23T04:23:12.505Z,1028.12
2019-02-23T04:23:55.218Z,1028.16
2019-02-23T04:24:35.323Z,1028.17
2019-02-23T04:25:16.500Z,1028.17
2019-02-23T04:25:57.717Z,1028.2
2019-02-23T04:26:38.314Z,1028.18
2019-02-23T04:27:18.852Z,1028.17
2019-02-23T05:07:58.157Z,1028.43
2019-02-23T05:12:12.862Z,1028.46
2019-02-23T05:14:43.169Z,1028.53
2019-02-23T05:17:18.895Z,1028.54
2019-02-23T05:18:13.794Z,1028.49
2019-02-23T05:19:08.020Z,1028.48
2019-02-23T05:21:56.280Z,1028.51
2019-02-23T05:22:59.173Z,1028.53
2019-02-23T05:23:56.804Z,1028.57
2019-02-23T05:24:53.427Z,1028.56
2019-02-23T05:29:06.006Z,1028.6
2019-02-23T05:29:58.460Z,1028.6
2019-02-23T05:30:52.523Z,1028.56
2019-02-23T05:31:44.014Z,1028.59
2019-02-23T05:32:32.194Z,1028.61
2019-02-23T05:33:21.160Z,1028.64
2019-02-23T05:38:36.462Z,1028.58
2019-02-23T05:39:30.831Z,1028.61
2019-02-23T05:41:25.039Z,1028.62
2019-02-23T05:42:19.369Z,1028.56
2019-02-23T05:43:11.438Z,1028.67
2019-02-23T05:44:00.999Z,1028.6
2019-02-23T05:44:54.943Z,1028.6
2019-02-23T05:45:43.738Z,1028.67
2019-02-23T05:48:33.177Z,1028.56
2019-02-23T05:49:15.176Z,1028.58
2019-02-23T05:49:55.722Z,1028.6
2019-02-23T05:50:36.974Z,1028.63
2019-02-23T05:51:18.669Z,1028.61
2019-02-23T05:55:05.809Z,1028.61
2019-02-23T05:55:51.025Z,1028.59
2019-02-23T05:56:31.674Z,1028.6
2019-02-23T05:57:12.410Z,1028.6
2019-02-23T05:57:52.916Z,1028.6
2019-02-23T05:58:33.742Z,1028.62
2019-02-23T05:59:14.049Z,1028.65
2019-02-23T05:59:54.502Z,1028.65
2019-02-23T06:00:36.059Z,1028.65
2019-02-23T06:01:19.014Z,1028.64
2019-02-23T06:02:02.909Z,1028.64
2019-02-23T06:02:44.897Z,1028.68
2019-02-23T06:03:24.394Z,1028.69
2019-02-23T06:04:07.251Z,1028.71
2019-02-23T06:04:50.408Z,1028.67
2019-02-23T06:05:32.078Z,1028.69
2019-02-23T06:06:13.294Z,1028.64
2019-02-23T06:06:55.823Z,1028.74
2019-02-23T06:07:37.608Z,1028.66
2019-02-23T06:08:21.292Z,1028.73
2019-02-23T06:09:09.265Z,1028.73
2019-02-23T06:09:52.654Z,1028.77
2019-02-23T06:10:38.308Z,1028.69
2019-02-23T06:11:22.031Z,1028.67
2019-02-23T06:12:04.871Z,1028.73
2019-02-23T06:12:47.107Z,1028.7
2019-02-23T06:13:29.992Z,1028.68
2019-02-23T06:14:13.037Z,1028.72
2019-02-23T06:14:54.700Z,1028.67
2019-02-23T06:15:36.724Z,1028.74
2019-02-23T06:16:18.053Z,1028.68
2019-02-23T06:16:59.267Z,1028.7
2019-02-23T06:17:42.787Z,1028.74
2019-02-23T06:18:26.770Z,1028.64
2019-02-23T06:19:10.531Z,1028.71
2019-02-23T06:19:51.366Z,1028.7
2019-02-23T06:20:34.129Z,1028.71
2019-02-23T06:21:14.566Z,1028.73
2019-02-23T06:21:55.786Z,1028.76
2019-02-23T06:22:36.166Z,1028.77
2019-02-23T06:23:16.559Z,1028.77
2019-02-23T06:23:57.667Z,1028.8
2019-02-23T06:24:39.198Z,1028.77
2019-02-23T06:25:20.068Z,1028.81
2019-02-23T06:26:00.910Z,1028.81
2019-02-23T06:26:41.432Z,1028.84
2019-02-23T06:27:22.939Z,1028.85
2019-02-23T06:28:03.227Z,1028.85
2019-02-23T06:28:43.644Z,1028.83
2019-02-23T06:29:24.348Z,1028.95
2019-02-23T06:30:04.776Z,1028.93
2019-02-23T06:30:45.209Z,1028.87
2019-02-23T06:31:25.706Z,1028.92
2019-02-23T06:32:06.796Z,1028.96
2019-02-23T06:32:48.069Z,1029
2019-02-23T06:34:50.749Z,1029.09
2019-02-23T06:35:36.516Z,1029.1
2019-02-23T06:36:18.654Z,1029.09
2019-02-23T06:37:00.967Z,1029.12
2019-02-23T06:37:43.457Z,1029.15
2019-02-23T06:38:27.503Z,1029.19
2019-02-23T06:39:08.030Z,1029.2
2019-02-23T06:39:48.693Z,1029.17
2019-02-23T06:40:29.554Z,1029.11
2019-02-23T06:41:10.081Z,1029.19
2019-02-23T06:44:01.694Z,1029.21
2019-02-23T06:46:26.792Z,1029.22
2019-02-23T06:48:51.898Z,1029.31
2019-02-23T06:51:02.235Z,1029.32
2019-02-23T06:53:30.470Z,1029.3
2019-02-23T06:54:22.547Z,1029.24
2019-02-23T06:55:02.903Z,1029.25
2019-02-23T06:55:45.022Z,1029.24
2019-02-23T06:56:25.401Z,1029.36
2019-02-23T06:57:07.446Z,1029.34
2019-02-23T07:00:54.350Z,1029.29
2019-02-23T07:02:57.580Z,1029.32
2019-02-23T07:05:21.566Z,1029.34
2019-02-23T07:06:03.708Z,1029.37
2019-02-23T07:06:46.247Z,1029.35
2019-02-23T07:07:27.862Z,1029.35
2019-02-23T07:08:11.209Z,1029.32
2019-02-23T07:09:01.743Z,1029.31
2019-02-23T07:09:44.294Z,1029.34
2019-02-23T07:10:24.827Z,1029.31
2019-02-23T07:11:05.239Z,1029.29
2019-02-23T07:11:48.250Z,1029.27
2019-02-23T07:12:30.810Z,1029.28
2019-02-23T07:13:14.951Z,1029.26
2019-02-23T07:14:15.278Z,1029.28
2019-02-23T07:18:32.773Z,1029.26
2019-02-23T07:19:18.670Z,1029.25
2019-02-23T07:20:10.002Z,1029.22
2019-02-23T07:21:04.407Z,1029.24
2019-02-23T07:21:45.304Z,1029.28
2019-02-23T07:22:25.801Z,1029.23
2019-02-23T07:23:06.220Z,1029.21
2019-02-23T07:25:04.277Z,1029.21
2019-02-23T07:25:52.693Z,1029.22
2019-02-23T07:26:34.048Z,1029.2
2019-02-23T07:27:14.682Z,1029.25
2019-02-23T07:27:55.172Z,1029.22
2019-02-23T07:28:35.747Z,1029.23
2019-02-23T07:29:16.420Z,1029.21
2019-02-23T07:29:56.969Z,1029.18
2019-02-23T07:30:37.624Z,1029.15
2019-02-23T07:31:18.238Z,1029.12
2019-02-23T07:32:03.357Z,1029.16
2019-02-23T07:32:49.527Z,1029.13
2019-02-23T07:33:33.014Z,1029.13
2019-02-23T07:34:13.891Z,1029.18
2019-02-23T07:34:54.410Z,1029.22
2019-02-23T07:35:35.470Z,1029.13
2019-02-23T07:36:15.894Z,1029.2
2019-02-23T07:36:57.108Z,1029.16
2019-02-23T07:37:37.668Z,1029.18
2019-02-23T07:38:18.637Z,1029.2
2019-02-23T07:38:59.455Z,1029.24
2019-02-23T07:39:39.901Z,1029.14
2019-02-23T07:40:20.390Z,1029.16
2019-02-23T07:41:01.188Z,1029.13
2019-02-23T07:41:42.942Z,1029.3
2019-02-23T07:42:23.294Z,1029.12
2019-02-23T07:43:03.907Z,1029.13
2019-02-23T07:43:44.395Z,1029.19
2019-02-23T07:44:25.074Z,1029.28
2019-02-23T07:45:06.801Z,1029.12
2019-02-23T07:45:47.876Z,1029.15
2019-02-23T07:46:29.147Z,1029.13
2019-02-23T07:47:10.106Z,1029.12
2019-02-23T07:47:51.343Z,1029.13
2019-02-23T07:48:32.448Z,1029.11
2019-02-23T07:49:13.224Z,1029.16
2019-02-23T07:49:54.335Z,1029.16
2019-02-23T07:50:35.803Z,1029.1
2019-02-23T07:51:16.793Z,1029.18
2019-02-23T07:51:59.346Z,1029.15
2019-02-23T07:52:40.008Z,1029.15
2019-02-23T07:53:21.266Z,1029.2
2019-02-23T07:54:02.043Z,1029.17
2019-02-23T07:54:45.298Z,1029.17
2019-02-23T07:55:25.923Z,1029.22
2019-02-23T07:56:06.445Z,1029.2
2019-02-23T07:56:46.993Z,1029.21
2019-02-23T07:57:27.636Z,1029.2
2019-02-23T07:58:08.413Z,1029.19
2019-02-23T07:58:49.150Z,1029.21
2019-02-23T07:59:30.302Z,1029.19
2019-02-23T08:00:10.952Z,1029.12
2019-02-23T08:00:51.958Z,1029.18
2019-02-23T08:01:33.871Z,1029.21
2019-02-23T08:02:14.918Z,1029.13
2019-02-23T08:02:56.243Z,1029.12
2019-02-23T08:03:38.889Z,1029.13
2019-02-23T08:04:19.980Z,1029.16
2019-02-23T08:05:00.495Z,1029.14
2019-02-23T08:05:42.768Z,1029.14
2019-02-23T08:06:23.257Z,1029.09
2019-02-23T08:07:03.676Z,1029.26
2019-02-23T08:07:44.347Z,1029.17
2019-02-23T08:08:25.379Z,1029.12
2019-02-23T08:09:07.467Z,1029.15
2019-02-23T08:09:50.036Z,1029.08
2019-02-23T08:10:30.479Z,1029.11
2019-02-23T08:11:11.646Z,1029.06
2019-02-23T08:11:52.588Z,1029.08
2019-02-23T08:12:33.449Z,1029.11
2019-02-23T08:13:13.913Z,1029.03
2019-02-23T08:13:54.814Z,1029.06
2019-02-23T08:14:35.261Z,1029.04
2019-02-23T08:15:15.611Z,1029.08
2019-02-23T08:15:56.455Z,1029.04
2019-02-23T08:16:36.907Z,1029.03
2019-02-23T08:17:17.730Z,1029.02
2019-02-23T08:17:58.798Z,1029.03
2019-02-23T08:18:39.867Z,1028.98
2019-02-23T08:19:22.987Z,1028.97
2019-02-23T08:20:03.598Z,1029.03
2019-02-23T08:20:51.075Z,1029.01
2019-02-23T08:21:32.578Z,1029
2019-02-23T08:22:16.690Z,1029.02
2019-02-23T08:23:00.334Z,1029.09
2019-02-23T08:23:42.323Z,1029.03
2019-02-23T08:24:27.128Z,1028.92
2019-02-23T08:25:08.077Z,1028.98
2019-02-23T08:25:48.916Z,1028.93
2019-02-23T08:26:29.809Z,1028.96
2019-02-23T08:27:11.267Z,1028.91
2019-02-23T08:27:54.677Z,1028.95
2019-02-23T08:28:36.944Z,1028.94
2019-02-23T08:29:17.775Z,1028.94
2019-02-23T08:29:58.074Z,1029.04
2019-02-23T08:30:43.631Z,1028.89
2019-02-23T08:31:24.390Z,1028.96
2019-02-23T08:34:05.517Z,1028.98
2019-02-23T08:34:48.822Z,1029.01
2019-02-23T08:35:29.325Z,1028.89
2019-02-23T08:36:12.999Z,1028.92
2019-02-23T08:36:55.627Z,1028.93
2019-02-23T08:37:36.917Z,1028.9
2019-02-23T08:38:18.191Z,1028.92
2019-02-23T08:39:00.377Z,1028.86
2019-02-23T08:39:40.701Z,1028.89
2019-02-23T08:40:21.987Z,1028.89
2019-02-23T08:41:06.532Z,1028.9
2019-02-23T08:41:48.463Z,1028.9
2019-02-23T08:42:31.313Z,1028.86
2019-02-23T08:43:31.874Z,1028.93
2019-02-23T08:44:23.194Z,1028.86
2019-02-23T08:58:29.061Z,1028.78
2019-02-23T08:59:10.132Z,1028.76
2019-02-23T09:07:00.329Z,1028.8
2019-02-23T09:13:19.894Z,1028.87
2019-02-23T09:14:03.643Z,1028.77
2019-02-23T09:14:48.009Z,1028.76
2019-02-23T09:15:30.459Z,1028.81
2019-02-23T09:16:16.496Z,1028.88
2019-02-23T09:16:57.854Z,1028.9
2019-02-23T09:17:39.099Z,1028.9
2019-02-23T09:18:23.279Z,1028.86
2019-02-23T09:19:04.727Z,1029.03
2019-02-23T09:19:46.944Z,1028.87
2019-02-23T09:20:29.776Z,1028.84
2019-02-23T09:21:10.693Z,1028.86
2019-02-23T09:21:52.194Z,1028.83
2019-02-23T09:22:32.443Z,1028.9
2019-02-23T09:23:16.633Z,1028.83
2019-02-23T09:23:58.775Z,1028.88
2019-02-23T09:24:41.791Z,1028.83
2019-02-23T09:25:41.182Z,1028.86
2019-02-23T09:26:23.973Z,1028.96
2019-02-23T09:27:08.683Z,1028.86
2019-02-23T09:27:50.888Z,1028.83
2019-02-23T09:28:33.119Z,1028.81
2019-02-23T09:29:16.611Z,1028.78
2019-02-23T09:29:58.690Z,1028.8
2019-02-23T09:30:39.196Z,1028.83
2019-02-23T09:31:24.365Z,1028.79
2019-02-23T09:32:06.377Z,1028.82
2019-02-23T09:32:46.750Z,1028.85
2019-02-23T09:33:27.797Z,1028.73
2019-02-23T09:34:09.005Z,1028.9
2019-02-23T09:34:50.267Z,1028.85
2019-02-23T09:35:32.635Z,1028.84
2019-02-23T09:36:20.186Z,1028.86
2019-02-23T09:37:12.259Z,1028.85
2019-02-23T09:37:52.758Z,1028.89
2019-02-23T09:38:36.399Z,1028.91
2019-02-23T09:39:17.244Z,1028.88
2019-02-23T09:39:58.739Z,1028.91
2019-02-23T09:40:42.112Z,1028.89
2019-02-23T09:41:23.128Z,1028.89
2019-02-23T09:42:07.573Z,1028.85
2019-02-23T09:42:49.438Z,1028.89
2019-02-23T09:43:35.973Z,1028.89
2019-02-23T09:46:18.675Z,1028.88
2019-02-23T09:47:18.388Z,1028.84
2019-02-23T10:01:55.459Z,1028.86
2019-02-23T10:02:48.673Z,1028.85
2019-02-23T10:03:29.178Z,1028.95
2019-02-23T10:04:11.550Z,1028.94
2019-02-23T10:04:54.152Z,1028.92
2019-02-23T10:05:37.961Z,1028.9
2019-02-23T10:06:16.038Z,1028.99
2019-02-23T10:06:56.683Z,1028.88
2019-02-23T10:07:39.028Z,1028.91
2019-02-23T10:08:27.843Z,1028.92
2019-02-23T10:09:09.685Z,1028.99
2019-02-23T10:09:51.943Z,1028.94
2019-02-23T10:10:36.081Z,1028.97
2019-02-23T10:11:16.544Z,1029.01
2019-02-23T10:12:07.270Z,1029.04
2019-02-23T10:15:58.619Z,1029.07
2019-02-23T10:16:37.820Z,1029.14
2019-02-23T10:17:20.049Z,1029.18
2019-02-23T10:18:03.555Z,1029.18
2019-02-23T10:18:47.134Z,1029.21
2019-02-23T10:19:32.395Z,1029.16
2019-02-23T10:20:14.198Z,1029.21
2019-02-23T10:20:55.865Z,1029.19
2019-02-23T10:21:37.031Z,1029.14
2019-02-23T10:22:20.334Z,1029.16
2019-02-23T10:23:01.045Z,1029.15
2019-02-23T10:23:42.011Z,1029.14
2019-02-23T11:11:31.540Z,1028.64
2019-02-23T11:12:12.870Z,1028.62
2019-02-23T11:12:53.248Z,1028.64
2019-02-23T11:13:33.980Z,1028.66
2019-02-23T11:14:14.375Z,1028.77
2019-02-23T11:14:54.751Z,1028.61
2019-02-23T11:15:35.991Z,1028.62
2019-02-23T11:16:18.274Z,1028.57
2019-02-23T11:16:58.753Z,1028.52
2019-02-23T11:17:39.263Z,1028.6
2019-02-23T11:18:19.775Z,1028.61
2019-02-23T11:19:02.049Z,1028.61
2019-02-23T11:19:42.477Z,1028.46
2019-02-23T11:20:23.863Z,1028.52
2019-02-23T11:21:04.539Z,1028.55
2019-02-23T11:21:44.941Z,1028.52
2019-02-23T11:22:25.310Z,1028.51
2019-02-23T11:23:05.836Z,1028.49
2019-02-23T11:23:48.546Z,1028.49
2019-02-23T11:24:28.877Z,1028.46
2019-02-23T11:25:09.200Z,1028.47
2019-02-23T11:25:49.607Z,1028.45
2019-02-23T11:26:29.983Z,1028.49
2019-02-23T11:27:12.735Z,1028.47
2019-02-23T11:27:54.455Z,1028.49
2019-02-23T11:28:37.152Z,1028.45
2019-02-23T11:29:19.539Z,1028.56
2019-02-23T11:30:02.001Z,1028.45
2019-02-23T11:30:43.420Z,1028.46
2019-02-23T11:31:23.844Z,1028.47
2019-02-23T11:32:08.058Z,1028.49
2019-02-23T11:32:50.234Z,1028.53
2019-02-23T11:33:30.732Z,1028.44
2019-02-23T11:34:11.350Z,1028.43
2019-02-23T11:34:54.506Z,1028.44
2019-02-23T11:35:34.920Z,1028.45
2019-02-23T11:36:17.175Z,1028.41
2019-02-23T11:36:59.557Z,1028.35
2019-02-23T11:37:39.889Z,1028.41
2019-02-23T11:38:20.382Z,1028.35
2019-02-23T11:39:00.962Z,1028.3
2019-02-23T11:39:41.335Z,1028.31
2019-02-23T11:40:23.502Z,1028.29
2019-02-23T11:41:04.366Z,1028.26
2019-02-23T11:41:45.346Z,1028.36
2019-02-23T11:42:27.363Z,1028.29
2019-02-23T11:43:08.013Z,1028.32
2019-02-23T11:43:50.621Z,1028.28
2019-02-23T11:44:32.695Z,1028.26
2019-02-23T11:45:13.072Z,1028.27
2019-02-23T11:45:54.241Z,1028.17
2019-02-23T11:46:34.580Z,1028.33
2019-02-23T11:47:15.028Z,1028.25
2019-02-23T11:47:55.422Z,1028.2
2019-02-23T11:48:37.962Z,1028.28
2019-02-23T11:49:18.256Z,1028.21
2019-02-23T11:49:58.694Z,1028.23
2019-02-23T11:50:39.131Z,1028.2
2019-02-23T11:51:28.097Z,1028.19
2019-02-23T11:52:08.649Z,1028.15
2019-02-23T11:52:49.867Z,1028.16
2019-02-23T11:53:30.373Z,1028.23
2019-02-23T11:54:10.784Z,1028.21
2019-02-23T11:54:51.152Z,1028.17
2019-02-23T11:55:31.414Z,1028.17
2019-02-23T11:56:12.369Z,1028.12
2019-02-23T11:56:54.948Z,1028.08
2019-02-23T11:57:39.208Z,1028.17
2019-02-23T11:58:21.663Z,1028.14
2019-02-23T11:59:03.278Z,1028.26
2019-02-23T11:59:43.696Z,1028.17
2019-02-23T12:00:25.689Z,1028.12
2019-02-23T12:01:06.309Z,1028.2
2019-02-23T12:01:46.687Z,1028.1
2019-02-23T12:02:28.725Z,1028.09
2019-02-23T12:18:00.519Z,1027.99
2019-02-23T12:18:41.802Z,1027.93
2019-02-23T12:19:28.079Z,1027.95
2019-02-23T12:20:10.483Z,1027.99
2019-02-23T12:20:50.830Z,1027.93
2019-02-23T12:21:34.202Z,1027.92
2019-02-23T12:22:16.489Z,1027.85
2019-02-23T12:22:58.553Z,1027.87
2019-02-23T12:23:39.788Z,1027.82
2019-02-23T12:24:20.248Z,1027.79
2019-02-23T12:25:03.094Z,1027.83
2019-02-23T12:25:43.789Z,1027.85
2019-02-23T12:26:24.422Z,1027.83
2019-02-23T12:27:04.863Z,1027.8
2019-02-23T12:27:45.260Z,1027.8
2019-02-23T12:28:25.697Z,1027.88
2019-02-23T12:29:06.071Z,1027.81
2019-02-23T12:29:53.694Z,1027.81
2019-02-23T12:30:34.132Z,1027.79
2019-02-23T12:31:14.657Z,1027.78
2019-02-23T12:31:56.942Z,1027.8
2019-02-23T12:32:40.835Z,1027.73
2019-02-23T12:33:22.328Z,1027.72
2019-02-23T12:34:02.778Z,1027.74
2019-02-23T12:34:43.128Z,1027.74
2019-02-23T12:35:25.667Z,1027.66
2019-02-23T12:36:06.129Z,1027.69
2019-02-23T12:36:46.518Z,1027.66
2019-02-23T12:37:28.973Z,1027.65
2019-02-23T12:38:11.237Z,1027.74
2019-02-23T12:38:51.639Z,1027.64
2019-02-23T12:39:32.018Z,1027.64
2019-02-23T12:40:14.443Z,1027.63
2019-02-23T12:40:55.800Z,1027.65
2019-02-23T12:41:36.184Z,1027.61
2019-02-23T12:42:21.305Z,1027.56
2019-02-23T12:43:01.681Z,1027.52
2019-02-23T12:43:44.129Z,1027.55
2019-02-23T12:44:24.457Z,1027.57
2019-02-23T12:45:04.841Z,1027.53
2019-02-23T12:45:48.301Z,1027.54
2019-02-23T12:46:30.688Z,1027.52
2019-02-23T12:47:14.892Z,1027.56
2019-02-23T12:47:55.505Z,1027.6
2019-02-23T12:48:35.933Z,1027.5
2019-02-23T12:49:18.117Z,1027.52
2019-02-23T12:50:02.140Z,1027.48
2019-02-23T12:50:45.041Z,1027.49
2019-02-23T12:51:25.435Z,1027.48
2019-02-23T12:52:07.640Z,1027.5
2019-02-23T12:52:48.041Z,1027.42
2019-02-23T12:53:28.397Z,1027.45
2019-02-23T12:54:16.690Z,1027.47
2019-02-23T12:54:55.092Z,1027.44
2019-02-23T12:55:35.346Z,1027.47
2019-02-23T12:56:15.699Z,1027.48
2019-02-23T12:56:56.142Z,1027.44
2019-02-23T12:57:36.694Z,1027.42
2019-02-23T12:58:17.173Z,1027.43
2019-02-23T12:58:57.708Z,1027.31
2019-02-23T12:59:40.857Z,1027.34
2019-02-23T13:00:23.098Z,1027.38
2019-02-23T13:01:05.292Z,1027.36
2019-02-23T13:01:48.612Z,1027.31
2019-02-23T13:02:29.116Z,1027.32
2019-02-23T13:03:09.511Z,1027.37
2019-02-23T13:03:49.807Z,1027.37
2019-02-23T13:04:30.571Z,1027.67
2019-02-23T13:05:11.176Z,1027.4
2019-02-23T13:05:51.422Z,1027.55
2019-02-23T13:06:34.728Z,1027.38
2019-02-23T13:07:15.199Z,1027.42
2019-02-23T13:07:55.632Z,1027.51
2019-02-23T13:08:36.087Z,1027.35
2019-02-23T13:09:16.441Z,1027.34
2019-02-23T13:09:57.777Z,1027.37
2019-02-23T13:10:41.782Z,1027.33
2019-02-23T13:11:22.294Z,1027.48
2019-02-23T13:12:04.259Z,1027.31
2019-02-23T13:12:44.838Z,1027.35
2019-02-23T13:13:25.015Z,1027.33
2019-02-23T13:14:05.508Z,1027.36
2019-02-23T13:18:13.272Z,1027.33
2019-02-23T13:18:57.139Z,1027.4
2019-02-23T13:19:39.308Z,1027.36
2019-02-23T13:23:33.737Z,1027.35
2019-02-23T13:24:12.586Z,1027.25
2019-02-23T13:24:53.860Z,1027.28
2019-02-23T13:25:36.448Z,1027.22
2019-02-23T13:26:16.646Z,1027.23
2019-02-23T13:26:57.919Z,1027.24
2019-02-23T13:27:40.320Z,1027.23
2019-02-23T13:28:20.744Z,1027.23
2019-02-23T13:29:01.117Z,1027.26
2019-02-23T13:29:41.640Z,1027.23
2019-02-23T13:30:22.014Z,1027.22
2019-02-23T13:31:04.212Z,1027.27
2019-02-23T13:31:45.344Z,1027.17
2019-02-23T13:32:29.006Z,1027.22
2019-02-23T13:33:09.428Z,1027.12
2019-02-23T13:33:49.872Z,1027.05
2019-02-23T13:34:30.455Z,1027.16
2019-02-23T13:35:13.777Z,1027.11
2019-02-23T13:35:55.804Z,1027.08
2019-02-23T13:36:36.159Z,1027.12
2019-02-23T13:37:16.522Z,1027.11
2019-02-23T13:38:00.254Z,1027.11
2019-02-23T13:38:40.727Z,1027.08
2019-02-23T13:39:24.629Z,1027.09
2019-02-23T13:40:07.460Z,1027.16
2019-02-23T13:40:47.859Z,1027.1
2019-02-23T13:41:28.302Z,1027.11
2019-02-23T13:42:10.549Z,1027.11
2019-02-23T13:42:51.357Z,1027.15
2019-02-23T13:43:32.064Z,1027.12
2019-02-23T13:44:12.288Z,1027.18
2019-02-23T13:44:52.802Z,1027.16
2019-02-23T13:45:35.306Z,1027.2
2019-02-23T13:46:17.045Z,1027.15
2019-02-23T13:47:17.497Z,1027.18
2019-02-23T13:48:01.826Z,1027.15
2019-02-23T13:48:44.235Z,1027.17
2019-02-23T13:49:24.679Z,1027.2
2019-02-23T13:50:05.222Z,1027.22
2019-02-23T13:50:45.485Z,1027.22
2019-02-23T13:51:28.760Z,1027.25
2019-02-23T13:52:10.314Z,1027.26
2019-02-23T13:52:52.887Z,1027.14
2019-02-23T13:57:06.359Z,1027.23
2019-02-23T13:57:45.932Z,1027.2
2019-02-23T13:58:26.335Z,1027.24
2019-02-23T13:59:08.589Z,1027.23
2019-02-23T13:59:49.959Z,1027.32
2019-02-23T14:00:30.350Z,1027.29
2019-02-23T14:01:11.132Z,1027.3
2019-02-23T14:01:51.435Z,1027.22
2019-02-23T14:02:33.691Z,1027.23
2019-02-23T14:03:15.714Z,1027.16
2019-02-23T14:03:56.132Z,1027.2
2019-02-23T14:04:36.581Z,1027.2
2019-02-23T14:05:17.024Z,1027.22
2019-02-23T14:05:59.159Z,1027.23
2019-02-23T14:06:39.590Z,1027.23